Time;durP1;ratioP1;P1;durP2;ratioP2;P2;SDS_P1;SDS_P2;PMS_P1;PMS_P2;Temp;Humidity;BMP_temperature;BMP_pressure;BME280_temperature;BME280_humidity;BME280_pressure;Samples;Min_cycle;Max_cycle;Signal;HPM_P1;HPM_P2
2023/12/23 00:01:53;;;;;;;4.97;0.90;;;;;;;3.90;100.00;99536.22;4973451;28;20061;-84
2023/12/23 00:04:22;;;;;;;4.57;0.77;;;;;;;3.76;100.00;99547.41;4979510;28;20356;-84
2023/12/23 00:06:58;;;;;;;7.97;1.40;;;;;;;3.63;100.00;99553.44;4977251;28;20051;-82
2023/12/23 00:09:25;;;;;;;5.30;0.52;;;;;;;3.57;100.00;99556.91;4980097;28;20049;-83
2023/12/23 00:11:54;;;;;;;3.17;0.60;;;;;;;3.48;100.00;99564.59;4994120;28;20056;-84
2023/12/23 00:14:21;;;;;;;3.78;0.73;;;;;;;3.46;100.00;99569.78;4975383;28;20696;-83
2023/12/23 00:16:48;;;;;;;9.02;1.73;;;;;;;3.51;100.00;99572.41;4993436;28;20112;-84
2023/12/23 00:19:16;;;;;;;6.55;1.30;;;;;;;3.45;100.00;99577.56;4989696;28;20158;-83
2023/12/23 00:21:43;;;;;;;10.93;1.75;;;;;;;3.44;100.00;99579.28;4989778;28;20230;-82
2023/12/23 00:24:15;;;;;;;4.00;1.27;;;;;;;3.39;100.00;99578.41;4991443;28;22289;-84
2023/12/23 00:26:41;;;;;;;5.22;1.17;;;;;;;3.36;100.00;99574.94;4992784;28;20129;-84
2023/12/23 00:29:08;;;;;;;6.32;1.02;;;;;;;3.36;100.00;99586.13;4993299;28;20081;-84
2023/12/23 00:31:35;;;;;;;6.63;1.15;;;;;;;3.36;100.00;99591.31;4990961;28;20053;-82
2023/12/23 00:34:04;;;;;;;15.15;2.47;;;;;;;3.36;100.00;99586.13;4977058;28;20051;-82
2023/12/23 00:36:31;;;;;;;12.80;3.33;;;;;;;3.39;100.00;99601.69;4989814;28;20041;-84
2023/12/23 00:39:01;;;;;;;5.38;0.90;;;;;;;3.36;100.00;99616.34;4990360;28;20052;-83
2023/12/23 00:41:27;;;;;;;3.85;0.98;;;;;;;3.29;100.00;99615.44;4993668;28;20583;-82
2023/12/23 00:43:54;;;;;;;5.43;1.00;;;;;;;3.33;100.00;99614.59;4975768;28;20049;-82
2023/12/23 00:46:21;;;;;;;6.40;0.98;;;;;;;3.29;100.00;99623.22;4992537;28;20037;-82
2023/12/23 00:48:47;;;;;;;5.07;0.70;;;;;;;3.21;100.00;99602.47;4993364;28;20068;-82
2023/12/23 00:51:14;;;;;;;5.45;1.17;;;;;;;3.22;100.00;99629.19;4992452;28;20189;-84
2023/12/23 00:53:41;;;;;;;3.08;0.60;;;;;;;3.19;100.00;99629.19;5010042;28;20716;-82
2023/12/23 00:56:07;;;;;;;5.10;1.30;;;;;;;3.15;100.00;99636.06;4977892;28;20390;-85
2023/12/23 00:58:34;;;;;;;6.65;0.80;;;;;;;3.12;100.00;99642.09;4979816;28;20391;-85
2023/12/23 01:01:01;;;;;;;3.38;0.60;;;;;;;3.11;100.00;99642.09;4994601;28;20120;-85
2023/12/23 01:03:30;;;;;;;2.47;0.45;;;;;;;3.07;100.00;99641.19;4977342;28;20742;-84
2023/12/23 01:05:59;;;;;;;7.10;0.60;;;;;;;3.02;100.00;99657.56;4978624;28;20569;-85
2023/12/23 01:08:27;;;;;;;2.80;1.20;;;;;;;3.00;100.00;99652.38;4990563;28;20053;-84
2023/12/23 01:10:53;;;;;;;3.33;0.57;;;;;;;2.98;100.00;99654.06;4989186;28;20144;-83
2023/12/23 01:13:19;;;;;;;7.50;0.85;;;;;;;2.94;100.00;99662.69;4990378;28;20132;-84
2023/12/23 01:15:51;;;;;;;3.85;1.20;;;;;;;2.93;100.00;99653.19;5004645;28;20430;-84
2023/12/23 01:18:21;;;;;;;3.28;0.98;;;;;;;2.95;100.00;99652.34;4972049;28;20111;-84
2023/12/23 01:20:47;;;;;;;6.57;1.15;;;;;;;2.97;100.00;99660.09;4972655;28;20033;-84
2023/12/23 01:23:15;;;;;;;5.07;1.38;;;;;;;2.98;100.00;99667.00;4973809;28;20069;-84
2023/12/23 01:25:42;;;;;;;4.57;1.05;;;;;;;2.94;100.00;99675.59;4982070;28;20455;-82
2023/12/23 01:28:09;;;;;;;6.55;0.75;;;;;;;2.95;100.00;99673.03;4971773;28;20060;-84
2023/12/23 01:30:35;;;;;;;4.88;1.05;;;;;;;2.98;100.00;99672.19;4987800;28;20985;-83
2023/12/23 01:33:02;;;;;;;8.23;1.33;;;;;;;3.00;100.00;99679.94;4990352;28;20057;-83
2023/12/23 01:35:29;;;;;;;5.18;1.00;;;;;;;3.02;100.00;99676.50;4991504;28;20536;-83
2023/12/23 01:37:55;;;;;;;7.85;1.33;;;;;;;3.02;100.00;99675.66;4991904;28;20048;-84
2023/12/23 01:40:22;;;;;;;6.75;1.25;;;;;;;3.01;100.00;99673.91;4988379;28;20614;-82
2023/12/23 01:42:49;;;;;;;8.65;1.40;;;;;;;3.06;100.00;99677.41;4988983;28;20042;-83
2023/12/23 01:45:17;;;;;;;6.45;1.08;;;;;;;3.14;100.00;99676.59;4971444;28;20502;-83
2023/12/23 01:47:49;;;;;;;3.97;0.82;;;;;;;3.22;100.00;99681.81;4992610;28;20125;-83
2023/12/23 01:50:19;;;;;;;6.15;1.90;;;;;;;3.31;100.00;99678.38;4975000;28;20104;-82
2023/12/23 01:52:46;;;;;;;6.55;2.33;;;;;;;3.37;100.00;99674.97;4988700;28;20045;-81
2023/12/23 01:55:13;;;;;;;10.70;1.17;;;;;;;3.43;100.00;99675.88;4971134;28;20056;-83
2023/12/23 01:57:47;;;;;;;6.10;1.45;;;;;;;3.47;100.00;99680.19;4990249;28;20041;-82
2023/12/23 02:00:15;;;;;;;12.63;1.75;;;;;;;3.51;100.00;99680.19;4983218;28;20060;-82
2023/12/23 02:02:41;;;;;;;7.15;1.35;;;;;;;3.52;100.00;99676.75;4954687;28;20042;-82
2023/12/23 02:05:09;;;;;;;4.80;1.05;;;;;;;3.56;100.00;99678.50;4967901;28;20741;-83
2023/12/23 02:07:38;;;;;;;8.93;1.35;;;;;;;3.54;100.00;99682.81;4955766;28;20097;-83
2023/12/23 02:10:10;;;;;;;5.95;1.35;;;;;;;3.56;100.00;99686.25;4958197;28;20096;-83
2023/12/23 02:13:04;;;;;;;4.13;0.95;;;;;;;3.57;100.00;99686.28;4984082;28;20053;-83
2023/12/23 02:15:34;;;;;;;10.68;2.00;;;;;;;3.60;100.00;99681.09;4953223;28;20046;-83
2023/12/23 02:18:01;;;;;;;4.85;1.90;;;;;;;3.56;100.00;99689.72;4952489;28;20065;-83
2023/12/23 02:20:29;;;;;;;6.15;1.00;;;;;;;3.63;100.00;99688.03;4969667;28;20399;-83
2023/12/23 02:22:56;;;;;;;9.10;1.33;;;;;;;3.67;100.00;99691.50;4984332;28;20056;-82
2023/12/23 02:25:23;;;;;;;3.20;0.93;;;;;;;3.66;100.00;99685.44;4953727;28;20073;-82
2023/12/23 02:27:54;;;;;;;5.18;2.70;;;;;;;3.67;100.00;99676.81;4967767;28;20050;-82
2023/12/23 02:30:24;;;;;;;5.35;1.52;;;;;;;3.67;100.00;99679.41;4967589;28;20036;-82
2023/12/23 02:32:52;;;;;;;11.55;2.35;;;;;;;3.67;100.00;99671.63;4966786;28;20299;-83
2023/12/23 02:35:18;;;;;;;12.60;2.20;;;;;;;3.72;100.00;99674.25;4969781;28;20128;-84
2023/12/23 02:37:55;;;;;;;7.88;1.63;;;;;;;3.72;100.00;99672.53;4977616;28;20128;-83
2023/12/23 02:40:22;;;;;;;8.15;1.45;;;;;;;3.79;100.00;99674.28;4967118;28;20480;-82
2023/12/23 02:42:48;;;;;;;7.18;1.85;;;;;;;3.82;100.00;99665.66;4970501;28;20049;-82
2023/12/23 02:45:15;;;;;;;6.05;3.03;;;;;;;3.86;100.00;99669.09;4967342;28;20145;-82
2023/12/23 02:47:41;;;;;;;13.27;1.67;;;;;;;3.84;100.00;99670.84;4968006;28;20046;-83
2023/12/23 02:50:10;;;;;;;7.50;1.92;;;;;;;3.92;100.00;99672.56;4954253;28;20147;-83
2023/12/23 02:52:36;;;;;;;10.27;2.75;;;;;;;3.94;100.00;99664.81;4969377;28;20089;-83
2023/12/23 02:55:11;;;;;;;9.20;2.08;;;;;;;3.92;100.00;99663.94;4970040;28;20046;-82
2023/12/23 02:57:41;;;;;;;8.27;1.90;;;;;;;4.04;100.00;99665.69;4954390;28;21667;-82
2023/12/23 03:00:11;;;;;;;9.05;1.95;;;;;;;4.02;100.00;99664.84;4994147;28;20084;-83
2023/12/23 03:02:39;;;;;;;7.65;1.70;;;;;;;4.08;100.00;99663.13;4972553;28;20053;-84
2023/12/23 03:05:08;;;;;;;13.50;2.38;;;;;;;4.09;100.00;99667.44;4985128;28;20148;-83
2023/12/23 03:07:35;;;;;;;8.52;1.70;;;;;;;4.16;100.00;99663.13;4969896;28;20084;-84
2023/12/23 03:10:02;;;;;;;10.00;1.58;;;;;;;4.18;100.00;99658.78;4987681;28;20033;-84
2023/12/23 03:12:49;;;;;;;10.55;1.45;;;;;;;4.22;100.00;99670.88;4987429;28;20059;-82
2023/12/23 03:15:15;;;;;;;6.63;2.15;;;;;;;4.21;100.00;99666.59;4972083;28;20060;-82
2023/12/23 03:17:42;;;;;;;8.68;1.30;;;;;;;4.25;100.00;99664.84;4968725;28;20045;-84
2023/12/23 03:20:12;;;;;;;5.75;1.58;;;;;;;4.31;100.00;99659.69;4984385;28;20103;-83
2023/12/23 03:22:38;;;;;;;10.80;2.25;;;;;;;4.34;100.00;99659.69;4966714;28;20095;-83
2023/12/23 03:25:05;;;;;;;10.88;1.33;;;;;;;4.27;100.00;99656.22;4985912;28;20470;-83
2023/12/23 03:27:32;;;;;;;8.00;2.00;;;;;;;4.35;100.00;99655.38;4985651;28;20047;-83
2023/12/23 03:29:58;;;;;;;5.18;1.20;;;;;;;4.34;100.00;99649.34;4970571;28;20077;-83
2023/12/23 03:32:27;;;;;;;6.70;1.35;;;;;;;4.32;100.00;99658.81;4985682;28;20059;-83
2023/12/23 03:34:53;;;;;;;7.55;2.55;;;;;;;4.34;100.00;99651.03;4988181;28;20053;-83
2023/12/23 03:37:20;;;;;;;4.00;1.40;;;;;;;4.33;100.00;99651.91;4969638;28;20053;-83
2023/12/23 03:39:49;;;;;;;13.32;2.50;;;;;;;4.29;100.00;99638.94;4988678;28;20132;-83
2023/12/23 03:42:16;;;;;;;18.65;2.05;;;;;;;4.29;100.00;99640.69;5002518;28;20063;-82
2023/12/23 03:44:45;;;;;;;14.40;2.05;;;;;;;4.31;100.00;99641.53;4983284;28;20053;-84
2023/12/23 03:47:14;;;;;;;10.13;1.60;;;;;;;4.32;100.00;99639.84;4989708;28;20160;-83
2023/12/23 03:49:42;;;;;;;4.43;1.13;;;;;;;4.28;100.00;99649.31;4970595;28;20132;-81
2023/12/23 03:52:09;;;;;;;6.30;1.67;;;;;;;4.29;100.00;99643.28;4975628;28;20064;-84
2023/12/23 03:54:39;;;;;;;10.57;1.58;;;;;;;4.32;100.00;99645.88;4987176;28;20060;-83
2023/12/23 03:57:08;;;;;;;8.75;1.70;;;;;;;4.32;100.00;99632.06;4969316;28;20049;-83
2023/12/23 03:59:37;;;;;;;10.63;2.28;;;;;;;4.28;100.00;99624.25;4983756;28;20064;-83
2023/12/23 04:02:03;;;;;;;8.65;1.38;;;;;;;4.34;100.00;99636.38;4986753;28;20392;-82
2023/12/23 04:04:30;;;;;;;16.10;3.58;;;;;;;4.39;100.00;99631.19;4972167;28;20042;-84
2023/12/23 04:06:56;;;;;;;8.40;1.73;;;;;;;4.39;100.00;99624.25;5002374;28;20064;-84
2023/12/23 04:09:23;;;;;;;15.48;2.42;;;;;;;4.34;100.00;99614.78;4989218;28;20041;-84
2023/12/23 04:11:50;;;;;;;8.80;1.58;;;;;;;4.33;100.00;99624.28;4970024;28;20057;-83
2023/12/23 04:14:17;;;;;;;4.03;1.25;;;;;;;4.35;100.00;99619.94;4984728;28;20160;-84
2023/12/23 04:16:47;;;;;;;7.30;1.23;;;;;;;4.31;100.00;99615.63;4990691;28;20532;-84
2023/12/23 04:19:14;;;;;;;9.18;1.38;;;;;;;4.34;100.00;99623.41;4970649;28;20109;-84
2023/12/23 04:21:41;;;;;;;11.13;1.58;;;;;;;4.28;100.00;99613.91;4973156;28;20049;-83
2023/12/23 04:24:11;;;;;;;10.25;1.38;;;;;;;4.27;100.00;99603.53;4988630;28;20413;-84
2023/12/23 04:26:40;;;;;;;5.18;1.48;;;;;;;4.30;100.00;99607.00;5005650;28;20042;-83
2023/12/23 04:29:11;;;;;;;6.47;1.80;;;;;;;4.27;100.00;99601.81;4992691;28;20064;-82
2023/12/23 04:31:38;;;;;;;12.77;2.20;;;;;;;4.26;100.00;99604.41;4992612;28;20037;-82
2023/12/23 04:34:04;;;;;;;11.05;1.30;;;;;;;4.29;100.00;99605.28;4978787;28;20057;-83
2023/12/23 04:36:41;;;;;;;9.10;2.10;;;;;;;4.26;100.00;99605.28;4973392;28;20075;-86
2023/12/23 04:39:07;;;;;;;7.07;2.00;;;;;;;4.32;100.00;99601.81;4982153;28;20590;-82
2023/12/23 04:41:33;;;;;;;4.03;1.27;;;;;;;4.30;100.00;99603.53;4986794;28;20498;-83
2023/12/23 04:43:59;;;;;;;6.70;1.20;;;;;;;4.27;100.00;99600.97;4992303;28;20085;-82
2023/12/23 04:46:26;;;;;;;3.70;1.13;;;;;;;4.26;100.00;99597.50;4975253;28;20545;-83
2023/12/23 04:49:08;;;;;;;8.57;1.73;;;;;;;4.27;100.00;99594.03;4991782;28;20049;-85
2023/12/23 04:51:43;;;;;;;5.60;1.20;;;;;;;4.29;100.00;99596.66;5001835;28;20136;-84
2023/12/23 04:54:22;;;;;;;10.50;1.80;;;;;;;4.28;100.00;99594.91;4968832;28;20509;-83
2023/12/23 04:57:04;;;;;;;7.03;1.30;;;;;;;4.27;100.00;99601.81;4983374;28;20149;-84
2023/12/23 04:59:34;;;;;;;11.65;2.90;;;;;;;4.30;100.00;99598.34;4987147;28;21060;-84
2023/12/23 05:02:07;;;;;;;4.05;1.50;;;;;;;4.29;100.00;99587.13;4957378;28;20205;-82
2023/12/23 05:04:36;;;;;;;4.72;1.58;;;;;;;4.35;100.00;99595.78;4957535;28;20053;-84
2023/12/23 05:07:09;;;;;;;5.43;1.10;;;;;;;4.32;100.00;99586.28;4974802;28;20519;-83
2023/12/23 05:09:45;;;;;;;4.03;1.38;;;;;;;4.37;100.00;99576.78;4973588;28;20053;-85
2023/12/23 05:12:22;;;;;;;3.45;1.50;;;;;;;4.43;100.00;99573.28;4958764;28;20874;-84
2023/12/23 05:14:50;;;;;;;6.97;1.05;;;;;;;4.35;100.00;99560.34;4981537;28;20049;-84
2023/12/23 05:17:16;;;;;;;6.75;1.70;;;;;;;4.37;100.00;99561.22;4958195;28;22658;-84
2023/12/23 05:19:43;;;;;;;7.47;1.30;;;;;;;4.35;100.00;99562.94;4972131;28;20112;-84
2023/12/23 05:22:10;;;;;;;7.40;1.20;;;;;;;4.39;100.00;99558.63;4970842;28;20057;-84
2023/12/23 05:24:39;;;;;;;4.80;1.10;;;;;;;4.34;100.00;99562.94;4956383;28;20054;-84
2023/12/23 05:27:06;;;;;;;8.48;0.93;;;;;;;4.27;100.00;99555.16;4982753;28;20262;-84
2023/12/23 05:29:32;;;;;;;9.93;1.48;;;;;;;4.34;100.00;99552.59;4946706;28;20145;-85
2023/12/23 05:32:01;;;;;;;9.65;1.60;;;;;;;4.29;100.00;99544.84;4957140;28;20081;-82
2023/12/23 05:34:27;;;;;;;4.57;0.77;;;;;;;4.37;100.00;99537.03;4967323;28;20057;-84
2023/12/23 05:36:54;;;;;;;8.93;2.17;;;;;;;4.42;100.00;99553.44;4986791;28;20535;-84
2023/12/23 05:39:20;;;;;;;11.23;1.75;;;;;;;4.49;100.00;99551.72;4956188;28;20144;-84
2023/12/23 05:42:07;;;;;;;5.43;0.95;;;;;;;4.46;100.00;99544.81;4956338;28;20949;-82
2023/12/23 05:44:34;;;;;;;2.90;0.45;;;;;;;4.46;100.00;99531.84;4973410;28;20057;-83
2023/12/23 05:47:00;;;;;;;3.75;2.38;;;;;;;4.44;100.00;99528.38;4955718;28;20046;-82
2023/12/23 05:49:30;;;;;;;8.45;0.70;;;;;;;4.44;100.00;99526.66;4955308;28;23462;-83
2023/12/23 05:51:57;;;;;;;5.35;0.90;;;;;;;4.47;100.00;99516.28;4955975;28;20053;-83
2023/12/23 05:54:24;;;;;;;3.65;0.70;;;;;;;4.38;100.00;99523.22;4954864;28;20080;-83
2023/12/23 05:56:51;;;;;;;4.78;0.80;;;;;;;4.40;100.00;99522.34;4972514;28;20053;-82
2023/12/23 05:59:28;;;;;;;7.07;1.05;;;;;;;4.35;100.00;99521.47;4961898;28;20061;-83
2023/12/23 06:01:55;;;;;;;2.97;0.65;;;;;;;4.34;100.00;99518.91;4981343;28;20556;-85
2023/12/23 06:04:22;;;;;;;6.85;0.85;;;;;;;4.29;100.00;99514.59;5007898;28;20068;-82
2023/12/23 06:06:48;;;;;;;7.72;1.20;;;;;;;4.27;100.00;99520.66;4984097;28;20586;-83
2023/12/23 06:09:25;;;;;;;3.42;0.47;;;;;;;4.22;100.00;99507.69;4972456;28;20049;-83
2023/12/23 06:11:52;;;;;;;5.45;0.75;;;;;;;4.21;100.00;99503.41;4970657;28;20041;-83
2023/12/23 06:14:19;;;;;;;8.65;1.52;;;;;;;4.20;100.00;99499.06;4988142;28;20287;-84
2023/12/23 06:16:45;;;;;;;2.30;0.57;;;;;;;4.23;100.00;99495.63;4986274;28;20061;-82
2023/12/23 06:19:12;;;;;;;7.97;0.68;;;;;;;4.18;100.00;99490.44;4991013;28;20134;-84
2023/12/23 06:21:45;;;;;;;4.60;0.50;;;;;;;4.19;100.00;99486.13;4985842;28;20041;-84
2023/12/23 06:24:12;;;;;;;6.38;0.95;;;;;;;4.13;100.00;99479.22;4969656;28;20557;-83
2023/12/23 06:26:39;;;;;;;8.20;2.13;;;;;;;4.16;100.00;99483.53;4971060;28;20831;-83
2023/12/23 06:29:08;;;;;;;2.10;0.82;;;;;;;4.08;100.00;99478.34;4989960;28;20160;-82
2023/12/23 06:31:35;;;;;;;2.35;1.13;;;;;;;4.04;100.00;99474.06;4974035;28;20410;-82
2023/12/23 06:34:03;;;;;;;6.28;1.92;;;;;;;4.04;100.00;99477.53;4990617;28;20053;-83
2023/12/23 06:36:31;;;;;;;2.45;0.88;;;;;;;4.00;100.00;99475.78;4968381;28;20396;-84
2023/12/23 06:38:57;;;;;;;2.13;0.70;;;;;;;3.95;100.00;99473.22;4970007;28;20071;-84
2023/12/23 06:41:24;;;;;;;8.07;0.93;;;;;;;3.91;100.00;99471.50;4972831;28;20037;-81
2023/12/23 06:43:56;;;;;;;3.85;1.83;;;;;;;3.85;100.00;99465.47;4970400;28;20046;-82
2023/12/23 06:46:28;;;;;;;1.95;0.60;;;;;;;3.80;100.00;99473.22;4970396;28;20611;-84
2023/12/23 06:48:55;;;;;;;2.53;0.57;;;;;;;3.85;100.00;99468.06;4989697;28;20046;-83
2023/12/23 06:51:21;;;;;;;4.43;0.77;;;;;;;3.80;100.00;99468.88;4966216;28;20053;-84
2023/12/23 06:56:30;;;;;;;1.33;0.52;;;;;;;3.71;100.00;99466.31;4973481;28;20060;-82
2023/12/23 06:58:57;;;;;;;2.83;0.50;;;;;;;3.73;100.00;99468.88;4986083;28;20057;-83
2023/12/23 07:01:25;;;;;;;4.35;0.70;;;;;;;3.71;100.00;99458.53;4986158;28;20455;-84
2023/12/23 07:03:54;;;;;;;2.55;0.63;;;;;;;3.64;100.00;99462.00;4984569;28;20049;-83
2023/12/23 07:06:21;;;;;;;2.40;0.38;;;;;;;3.63;100.00;99460.28;4981432;28;20048;-84
2023/12/23 07:08:48;;;;;;;2.65;0.82;;;;;;;3.63;100.00;99460.28;5001517;28;20144;-83
2023/12/23 07:11:14;;;;;;;1.75;0.40;;;;;;;3.62;100.00;99456.84;4986166;28;20056;-82
2023/12/23 07:13:43;;;;;;;1.15;0.60;;;;;;;3.64;100.00;99443.91;4968823;28;20054;-83
2023/12/23 07:16:10;;;;;;;3.40;0.98;;;;;;;3.63;100.00;99449.94;4983424;28;20196;-84
2023/12/23 07:18:39;;;;;;;1.13;0.40;;;;;;;3.64;100.00;99447.34;4964742;28;20084;-84
2023/12/23 07:21:06;;;;;;;4.25;0.70;;;;;;;3.66;100.00;99443.88;4968109;28;20042;-83
2023/12/23 07:23:32;;;;;;;3.03;0.35;;;;;;;3.62;100.00;99438.72;5000751;28;20909;-84
2023/12/23 07:25:59;;;;;;;2.72;0.30;;;;;;;3.63;100.00;99432.66;4981469;28;20056;-82
2023/12/23 07:28:26;;;;;;;2.65;0.50;;;;;;;3.63;100.00;99434.41;4993720;28;20124;-83
2023/12/23 07:30:52;;;;;;;4.00;1.13;;;;;;;3.69;100.00;99439.59;4983878;28;20096;-84
2023/12/23 07:33:19;;;;;;;5.60;0.70;;;;;;;3.68;100.00;99432.69;4984667;28;20045;-83
2023/12/23 07:35:47;;;;;;;1.17;0.70;;;;;;;3.71;100.00;99426.63;4979183;28;20053;-83
2023/12/23 07:38:14;;;;;;;5.63;0.70;;;;;;;3.64;100.00;99418.88;4984938;28;20147;-83
2023/12/23 07:40:41;;;;;;;2.75;1.08;;;;;;;3.68;100.00;99421.44;4985527;28;20048;-81
2023/12/23 07:43:08;;;;;;;1.55;0.45;;;;;;;3.73;100.00;99423.19;4986898;28;20045;-82
2023/12/23 07:45:43;;;;;;;1.70;0.20;;;;;;;3.73;100.00;99423.19;4969217;28;20042;-83
2023/12/23 07:48:10;;;;;;;1.52;0.45;;;;;;;3.68;100.00;99422.31;4985646;28;20057;-82
2023/12/23 07:53:24;;;;;;;0.82;0.30;;;;;;;3.70;100.00;99428.34;4971458;28;20049;-84
2023/12/23 07:55:50;;;;;;;2.10;0.50;;;;;;;3.71;100.00;99424.03;4985793;28;20057;-84
2023/12/23 07:58:17;;;;;;;0.88;0.17;;;;;;;3.68;100.00;99435.25;4966884;28;20046;-83
2023/12/23 08:00:43;;;;;;;1.15;0.30;;;;;;;3.64;100.00;99434.38;4981339;28;20058;-84
2023/12/23 08:03:13;;;;;;;1.55;0.20;;;;;;;3.64;100.00;99425.78;4967899;28;20056;-83
2023/12/23 08:05:40;;;;;;;0.20;0.20;;;;;;;3.70;100.00;99425.75;4980158;28;20037;-84
2023/12/23 08:08:09;;;;;;;1.45;0.65;;;;;;;3.67;100.00;99425.75;4999073;28;20041;-83
2023/12/23 08:10:37;;;;;;;1.65;0.77;;;;;;;3.62;100.00;99423.19;4958330;28;20054;-83
2023/12/23 08:13:02;;;;;;;0.85;0.30;;;;;;;3.62;100.00;99423.19;4976271;28;20041;-83
2023/12/23 08:15:29;;;;;;;1.50;0.30;;;;;;;3.62;100.00;99428.38;4983017;28;20041;-84
2023/12/23 08:17:56;;;;;;;2.65;0.30;;;;;;;3.62;100.00;99425.78;4983163;28;20101;-83
2023/12/23 08:20:29;;;;;;;1.05;0.10;;;;;;;3.66;100.00;99429.22;4988738;28;20517;-82
2023/12/23 08:22:56;;;;;;;1.10;0.03;;;;;;;3.62;100.00;99419.72;4983675;28;20323;-82
2023/12/23 08:25:24;;;;;;;0.90;0.28;;;;;;;3.59;100.00;99428.34;4988035;28;20052;-84
2023/12/23 08:27:51;;;;;;;1.30;0.60;;;;;;;3.61;100.00;99418.88;4981045;28;20054;-83
2023/12/23 08:30:17;;;;;;;0.28;0.28;;;;;;;3.58;100.00;99423.19;4963552;28;20057;-83
2023/12/23 08:32:44;;;;;;;1.35;0.30;;;;;;;3.50;100.00;99430.09;4982558;28;20129;-82
2023/12/23 08:35:18;;;;;;;1.15;0.63;;;;;;;3.52;100.00;99430.94;4984342;28;20787;-82
2023/12/23 08:37:45;;;;;;;0.95;0.15;;;;;;;3.50;100.00;99428.34;4998584;28;20105;-83
2023/12/23 08:40:12;;;;;;;0.40;0.28;;;;;;;3.52;100.00;99426.66;4969568;28;20057;-83
2023/12/23 08:42:44;;;;;;;0.20;0.20;;;;;;;3.53;100.00;99419.75;4981776;28;20109;-83
2023/12/23 08:45:17;;;;;;;0.20;0.20;;;;;;;3.54;100.00;99426.66;4970082;28;20049;-84
2023/12/23 08:47:49;;;;;;;0.43;0.13;;;;;;;3.45;100.00;99424.91;5003048;28;23259;-84
2023/12/23 08:50:16;;;;;;;0.98;0.93;;;;;;;3.40;100.00;99426.63;4975253;28;20048;-82
2023/12/23 08:52:43;;;;;;;1.48;0.32;;;;;;;3.44;100.00;99428.34;4978531;28;20069;-84
2023/12/23 08:55:09;;;;;;;0.60;0.35;;;;;;;3.41;100.00;99421.44;4985828;28;20545;-84
2023/12/23 08:57:47;;;;;;;0.95;0.50;;;;;;;3.34;100.00;99429.19;4986548;28;20081;-83
2023/12/23 09:00:16;;;;;;;0.30;0.20;;;;;;;3.29;100.00;99422.31;4963109;28;20058;-83
2023/12/23 09:02:43;;;;;;;0.85;0.73;;;;;;;3.29;100.00;99434.38;4973789;28;20499;-83
2023/12/23 09:05:12;;;;;;;0.40;0.40;;;;;;;3.22;100.00;99437.81;4976811;28;20077;-84
2023/12/23 09:07:44;;;;;;;0.30;0.20;;;;;;;3.27;100.00;99439.56;4998588;28;20037;-82
2023/12/23 09:10:11;;;;;;;0.68;0.35;;;;;;;3.30;100.00;99431.81;4984267;28;20076;-82
2023/12/23 09:12:38;;;;;;;0.35;0.25;;;;;;;3.36;100.00;99433.50;4982778;28;20041;-84
2023/12/23 09:15:15;;;;;;;1.75;0.40;;;;;;;3.34;100.00;99435.25;4967701;28;20104;-83
2023/12/23 09:17:41;;;;;;;1.98;0.95;;;;;;;3.30;100.00;99436.13;4995344;28;20037;-83
2023/12/23 09:20:14;;;;;;;0.40;0.30;;;;;;;3.27;100.00;99426.63;4985723;28;20061;-84
2023/12/23 09:22:43;;;;;;;1.83;0.25;;;;;;;3.26;100.00;99435.25;4982318;28;20045;-82
2023/12/23 09:25:13;;;;;;;0.85;0.52;;;;;;;3.29;100.00;99439.56;4984449;28;20577;-84
2023/12/23 09:27:39;;;;;;;0.20;0.20;;;;;;;3.21;100.00;99441.28;4968447;28;20562;-82
2023/12/23 09:30:11;;;;;;;0.10;0.10;;;;;;;3.25;100.00;99443.00;4981877;28;20052;-82
2023/12/23 09:32:38;;;;;;;2.47;0.82;;;;;;;3.28;100.00;99441.28;4979382;28;20585;-83
2023/12/23 09:35:08;;;;;;;0.50;0.20;;;;;;;3.29;100.00;99448.19;4968949;28;20123;-83
2023/12/23 09:37:44;;;;;;;1.10;0.10;;;;;;;3.25;100.00;99455.94;4978968;28;20513;-82
2023/12/23 09:40:13;;;;;;;0.40;0.40;;;;;;;3.28;100.00;99466.28;4984531;28;20111;-82
2023/12/23 09:42:41;;;;;;;0.40;0.40;;;;;;;3.30;100.00;99470.59;4982982;28;20116;-81
2023/12/23 09:45:15;;;;;;;0.20;0.20;;;;;;;3.30;100.00;99464.56;4998600;28;20551;-81
2023/12/23 09:47:42;;;;;;;0.38;0.30;;;;;;;3.28;100.00;99472.31;4967295;28;20509;-82
2023/12/23 09:50:12;;;;;;;0.20;0.20;;;;;;;3.29;100.00;99486.13;4967000;28;20529;-82
2023/12/23 09:52:43;;;;;;;0.40;0.10;;;;;;;3.27;100.00;99474.91;4964802;28;20105;-82
2023/12/23 09:55:11;;;;;;;1.00;1.00;;;;;;;3.26;100.00;99471.47;4984231;28;20063;-82
2023/12/23 09:57:44;;;;;;;0.50;0.40;;;;;;;3.26;100.00;99473.16;4981798;28;20109;-83
2023/12/23 10:00:13;;;;;;;0.60;0.30;;;;;;;3.29;100.00;99478.38;4989671;28;20054;-86
2023/12/23 10:02:39;;;;;;;0.20;0.13;;;;;;;3.34;100.00;99476.66;4979266;28;20179;-82
2023/12/23 10:05:20;;;;;;;0.30;0.30;;;;;;;3.37;100.00;99470.63;4983444;28;20061;-83
2023/12/23 10:07:48;;;;;;;0.10;0.10;;;;;;;3.37;100.00;99487.00;4984527;28;20053;-83
2023/12/23 10:10:16;;;;;;;1.35;0.30;;;;;;;3.38;100.00;99482.69;4986739;28;20049;-84
2023/12/23 10:12:49;;;;;;;0.95;0.30;;;;;;;3.38;100.00;99491.31;4968181;28;20140;-85
2023/12/23 10:15:18;;;;;;;0.60;0.40;;;;;;;3.41;100.00;99493.88;4972972;28;20129;-84
2023/12/23 10:17:53;;;;;;;1.77;0.43;;;;;;;3.43;100.00;99496.50;4986437;28;20063;-83
2023/12/23 10:20:20;;;;;;;1.75;0.50;;;;;;;3.41;100.00;99486.13;4988587;28;20045;-83
2023/12/23 10:22:50;;;;;;;0.50;0.28;;;;;;;3.38;100.00;99488.72;4983277;28;20515;-83
2023/12/23 10:25:19;;;;;;;0.63;0.60;;;;;;;3.31;100.00;99494.72;4969538;28;20053;-83
2023/12/23 10:27:54;;;;;;;0.30;0.30;;;;;;;3.26;100.00;99489.56;4966575;28;20053;-83
2023/12/23 10:30:29;;;;;;;0.93;0.55;;;;;;;3.28;100.00;99492.16;4967331;28;20044;-82
2023/12/23 10:33:06;;;;;;;2.45;0.90;;;;;;;3.30;100.00;99493.03;4969889;28;20049;-84
2023/12/23 10:35:59;;;;;;;0.98;0.98;;;;;;;3.34;100.00;99494.75;4969973;28;20121;-84
2023/12/23 10:38:28;;;;;;;0.55;0.55;;;;;;;3.30;100.00;99493.88;4977329;28;20057;-82
2023/12/23 10:41:09;;;;;;;0.22;0.22;;;;;;;3.30;100.00;99496.47;4966468;28;20645;-82
2023/12/23 10:43:37;;;;;;;0.55;0.52;;;;;;;3.31;100.00;99492.13;4985289;28;20089;-83
2023/12/23 10:46:12;;;;;;;1.90;0.40;;;;;;;3.36;100.00;99489.56;4983044;28;20087;-83
2023/12/23 10:48:48;;;;;;;1.88;0.77;;;;;;;3.41;100.00;99491.31;4983218;28;20045;-82
2023/12/23 10:51:20;;;;;;;0.70;0.40;;;;;;;3.39;100.00;99492.16;4979406;28;20064;-84
2023/12/23 10:53:47;;;;;;;2.33;0.50;;;;;;;3.39;100.00;99500.81;4963529;28;20046;-83
2023/12/23 10:56:16;;;;;;;2.15;0.30;;;;;;;3.44;100.00;99493.91;4963662;28;20049;-84
2023/12/23 10:58:43;;;;;;;0.95;0.38;;;;;;;3.49;100.00;99488.72;4981770;28;20534;-84
2023/12/23 11:01:24;;;;;;;2.30;0.30;;;;;;;3.54;100.00;99491.31;4967000;28;20117;-83
2023/12/23 11:04:02;;;;;;;0.85;0.40;;;;;;;3.59;100.00;99492.19;4994466;28;20251;-83
2023/12/23 11:06:34;;;;;;;1.42;0.50;;;;;;;3.57;100.00;99489.63;4962024;28;20044;-83
2023/12/23 11:09:05;;;;;;;1.73;0.63;;;;;;;3.60;100.00;99496.53;4976409;28;20526;-83
2023/12/23 11:11:38;;;;;;;0.75;0.45;;;;;;;3.59;100.00;99503.41;4965030;28;20045;-83
2023/12/23 11:14:08;;;;;;;1.02;0.45;;;;;;;3.61;100.00;99496.50;4964184;28;20211;-84
2023/12/23 11:16:52;;;;;;;4.15;0.95;;;;;;;3.66;100.00;99500.81;4981099;28;20855;-83
2023/12/23 11:19:20;;;;;;;0.65;0.60;;;;;;;3.63;100.00;99497.34;4966882;28;20045;-84
2023/12/23 11:22:10;;;;;;;0.65;0.63;;;;;;;3.67;100.00;99499.97;4966955;28;20079;-84
2023/12/23 11:24:38;;;;;;;0.45;0.40;;;;;;;3.65;100.00;99499.97;4983355;28;20046;-86
2023/12/23 11:27:08;;;;;;;2.22;1.10;;;;;;;3.69;100.00;99495.63;4968234;28;20053;-84
2023/12/23 11:29:38;;;;;;;1.10;1.02;;;;;;;3.70;100.00;99505.97;4986506;28;20111;-82
2023/12/23 11:32:15;;;;;;;1.50;0.70;;;;;;;3.67;100.00;99499.97;4965142;28;20072;-84
2023/12/23 11:34:42;;;;;;;2.97;1.40;;;;;;;3.68;100.00;99502.56;4964542;28;20045;-83
2023/12/23 11:37:12;;;;;;;0.88;0.88;;;;;;;3.72;100.00;99506.00;4984672;28;20042;-84
2023/12/23 11:39:41;;;;;;;0.70;0.70;;;;;;;3.74;100.00;99504.28;4954279;28;20507;-81
2023/12/23 11:42:10;;;;;;;0.82;0.80;;;;;;;3.69;100.00;99506.00;4983785;28;20113;-82
2023/12/23 11:44:38;;;;;;;1.40;1.10;;;;;;;3.73;100.00;99505.13;4966377;28;20136;-83
2023/12/23 11:47:05;;;;;;;3.22;1.20;;;;;;;3.69;100.00;99508.56;4985632;28;20037;-84